sensor_id;sensor_type;location;lat;lon;timestamp;pressure;altitude;pressure_sealevel;temperature;humidity
48606;BME280;8482;54.396;18.590;2023-10-09T00:02:22;102025.41;;;8.31;56.77
48606;BME280;8482;54.396;18.590;2023-10-09T00:04:48;102024.16;;;8.38;56.58
48606;BME280;8482;54.396;18.590;2023-10-09T00:07:17;102021.47;;;8.40;56.48
48606;BME280;8482;54.396;18.590;2023-10-09T00:09:43;102011.72;;;8.40;56.39
48606;BME280;8482;54.396;18.590;2023-10-09T00:12:16;102002.94;;;8.40;56.67
48606;BME280;8482;54.396;18.590;2023-10-09T00:14:52;102003.00;;;8.38;56.64
48606;BME280;8482;54.396;18.590;2023-10-09T00:17:21;101988.16;;;8.36;56.65
48606;BME280;8482;54.396;18.590;2023-10-09T00:19:48;101987.91;;;8.40;56.61
48606;BME280;8482;54.396;18.590;2023-10-09T00:22:15;101988.94;;;8.38;56.67
48606;BME280;8482;54.396;18.590;2023-10-09T00:24:50;101984.44;;;8.40;56.76
48606;BME280;8482;54.396;18.590;2023-10-09T00:27:36;101989.88;;;8.37;57.02
48606;BME280;8482;54.396;18.590;2023-10-09T00:30:02;101987.38;;;8.34;57.12
48606;BME280;8482;54.396;18.590;2023-10-09T00:32:31;101983.00;;;8.33;56.92
48606;BME280;8482;54.396;18.590;2023-10-09T00:34:59;101989.78;;;8.38;56.79
48606;BME280;8482;54.396;18.590;2023-10-09T00:37:44;101983.72;;;8.36;56.97
48606;BME280;8482;54.396;18.590;2023-10-09T00:40:11;101985.50;;;8.36;57.02
48606;BME280;8482;54.396;18.590;2023-10-09T00:42:48;101975.97;;;8.33;56.98
48606;BME280;8482;54.396;18.590;2023-10-09T00:45:14;101982.16;;;8.32;57.23
48606;BME280;8482;54.396;18.590;2023-10-09T00:47:53;101981.16;;;8.35;56.99
48606;BME280;8482;54.396;18.590;2023-10-09T00:50:23;101996.09;;;8.36;56.57
48606;BME280;8482;54.396;18.590;2023-10-09T00:52:55;101995.06;;;8.38;56.79
48606;BME280;8482;54.396;18.590;2023-10-09T00:55:32;101983.78;;;8.35;56.58
48606;BME280;8482;54.396;18.590;2023-10-09T00:58:15;101978.19;;;8.41;56.33
48606;BME280;8482;54.396;18.590;2023-10-09T01:00:50;101983.41;;;8.42;56.49
48606;BME280;8482;54.396;18.590;2023-10-09T01:03:19;101989.53;;;8.43;56.19
48606;BME280;8482;54.396;18.590;2023-10-09T01:05:53;101999.19;;;8.44;56.60
48606;BME280;8482;54.396;18.590;2023-10-09T01:08:35;101992.28;;;8.41;56.40
48606;BME280;8482;54.396;18.590;2023-10-09T01:11:16;101981.94;;;8.37;57.03
48606;BME280;8482;54.396;18.590;2023-10-09T01:13:49;101977.88;;;8.29;57.16
48606;BME280;8482;54.396;18.590;2023-10-09T01:16:22;101975.31;;;8.28;57.39
48606;BME280;8482;54.396;18.590;2023-10-09T01:18:55;101982.38;;;8.27;57.30
48606;BME280;8482;54.396;18.590;2023-10-09T01:21:24;101982.31;;;8.29;57.12
48606;BME280;8482;54.396;18.590;2023-10-09T01:23:55;101979.72;;;8.27;57.12
48606;BME280;8482;54.396;18.590;2023-10-09T01:26:43;101978.88;;;8.27;57.44
48606;BME280;8482;54.396;18.590;2023-10-09T01:29:20;101971.97;;;8.24;57.62
48606;BME280;8482;54.396;18.590;2023-10-09T01:31:52;101972.75;;;8.26;57.25
48606;BME280;8482;54.396;18.590;2023-10-09T01:34:24;101988.44;;;8.29;57.38
48606;BME280;8482;54.396;18.590;2023-10-09T01:36:59;101990.31;;;8.27;57.67
48606;BME280;8482;54.396;18.590;2023-10-09T01:39:26;101986.25;;;8.20;57.49
48606;BME280;8482;54.396;18.590;2023-10-09T01:42:05;101991.47;;;8.22;57.89
48606;BME280;8482;54.396;18.590;2023-10-09T01:44:33;101979.25;;;8.19;57.81
48606;BME280;8482;54.396;18.590;2023-10-09T01:47:06;101981.91;;;8.19;57.84
48606;BME280;8482;54.396;18.590;2023-10-09T01:49:40;101972.25;;;8.18;58.40
48606;BME280;8482;54.396;18.590;2023-10-09T01:52:12;101956.50;;;8.17;58.03
48606;BME280;8482;54.396;18.590;2023-10-09T01:54:51;101957.34;;;8.17;58.06
48606;BME280;8482;54.396;18.590;2023-10-09T01:57:19;101959.97;;;8.17;58.24
48606;BME280;8482;54.396;18.590;2023-10-09T01:59:50;101952.97;;;8.16;58.21
48606;BME280;8482;54.396;18.590;2023-10-09T02:02:20;101954.63;;;8.19;58.32
48606;BME280;8482;54.396;18.590;2023-10-09T02:04:59;101957.34;;;8.17;58.29
48606;BME280;8482;54.396;18.590;2023-10-09T02:07:37;101958.13;;;8.19;57.96
48606;BME280;8482;54.396;18.590;2023-10-09T02:10:15;101953.06;;;8.15;58.39
48606;BME280;8482;54.396;18.590;2023-10-09T02:13:04;101955.72;;;8.15;58.15
48606;BME280;8482;54.396;18.590;2023-10-09T02:15:40;101949.72;;;8.11;58.68
48606;BME280;8482;54.396;18.590;2023-10-09T02:18:19;101944.44;;;8.11;58.52
48606;BME280;8482;54.396;18.590;2023-10-09T02:21:03;101931.28;;;8.09;58.62
48606;BME280;8482;54.396;18.590;2023-10-09T02:23:39;101931.13;;;8.12;57.88
48606;BME280;8482;54.396;18.590;2023-10-09T02:26:08;101923.06;;;8.16;57.95
48606;BME280;8482;54.396;18.590;2023-10-09T02:28:35;101926.72;;;8.13;58.15
48606;BME280;8482;54.396;18.590;2023-10-09T02:31:12;101923.06;;;8.16;57.62
48606;BME280;8482;54.396;18.590;2023-10-09T02:33:39;101922.19;;;8.15;58.00
48606;BME280;8482;54.396;18.590;2023-10-09T02:36:08;101922.97;;;8.17;57.96
48606;BME280;8482;54.396;18.590;2023-10-09T02:38:35;101918.78;;;8.13;57.84
48606;BME280;8482;54.396;18.590;2023-10-09T02:41:07;101917.78;;;8.16;57.72
48606;BME280;8482;54.396;18.590;2023-10-09T02:43:35;101911.00;;;8.10;57.55
48606;BME280;8482;54.396;18.590;2023-10-09T02:46:14;101903.09;;;8.10;58.17
48606;BME280;8482;54.396;18.590;2023-10-09T02:48:48;101898.63;;;8.10;58.09
48606;BME280;8482;54.396;18.590;2023-10-09T02:51:19;101904.06;;;8.07;57.88
48606;BME280;8482;54.396;18.590;2023-10-09T02:54:09;101903.09;;;8.10;57.66
48606;BME280;8482;54.396;18.590;2023-10-09T02:56:52;101896.88;;;8.11;57.82
48606;BME280;8482;54.396;18.590;2023-10-09T02:59:33;101896.91;;;8.09;58.08
48606;BME280;8482;54.396;18.590;2023-10-09T03:02:00;101889.19;;;8.06;57.90
48606;BME280;8482;54.396;18.590;2023-10-09T03:04:29;101890.72;;;8.10;57.51
48606;BME280;8482;54.396;18.590;2023-10-09T03:06:56;101888.06;;;8.10;57.89
48606;BME280;8482;54.396;18.590;2023-10-09T03:09:24;101870.59;;;8.08;58.21
48606;BME280;8482;54.396;18.590;2023-10-09T03:11:59;101877.59;;;8.09;57.87
48606;BME280;8482;54.396;18.590;2023-10-09T03:14:29;101884.50;;;8.11;57.83
48606;BME280;8482;54.396;18.590;2023-10-09T03:16:57;101874.94;;;8.09;57.87
48606;BME280;8482;54.396;18.590;2023-10-09T03:19:25;101864.53;;;8.06;57.61
48606;BME280;8482;54.396;18.590;2023-10-09T03:21:57;101860.94;;;8.07;57.80
48606;BME280;8482;54.396;18.590;2023-10-09T03:24:26;101862.66;;;8.08;57.59
48606;BME280;8482;54.396;18.590;2023-10-09T03:26:56;101858.31;;;8.07;57.80
48606;BME280;8482;54.396;18.590;2023-10-09T03:29:24;101842.69;;;8.02;57.64
48606;BME280;8482;54.396;18.590;2023-10-09T03:31:50;101850.47;;;8.05;57.78
48606;BME280;8482;54.396;18.590;2023-10-09T03:34:17;101843.72;;;8.00;57.88
48606;BME280;8482;54.396;18.590;2023-10-09T03:36:45;101837.63;;;7.97;57.79
48606;BME280;8482;54.396;18.590;2023-10-09T03:39:13;101843.75;;;7.98;58.02
48606;BME280;8482;54.396;18.590;2023-10-09T03:41:58;101848.81;;;8.03;57.79
48606;BME280;8482;54.396;18.590;2023-10-09T03:44:25;101855.97;;;8.01;58.03
48606;BME280;8482;54.396;18.590;2023-10-09T03:46:55;101850.06;;;7.95;57.63
48606;BME280;8482;54.396;18.590;2023-10-09T03:49:20;101858.78;;;7.97;57.93
48606;BME280;8482;54.396;18.590;2023-10-09T03:51:52;101865.00;;;7.96;58.10
48606;BME280;8482;54.396;18.590;2023-10-09T03:54:18;101868.56;;;7.95;58.12
48606;BME280;8482;54.396;18.590;2023-10-09T03:56:51;101869.50;;;7.94;57.92
48606;BME280;8482;54.396;18.590;2023-10-09T03:59:21;101864.28;;;7.93;58.15
48606;BME280;8482;54.396;18.590;2023-10-09T04:01:48;101852.00;;;7.92;58.62
48606;BME280;8482;54.396;18.590;2023-10-09T04:04:19;101840.66;;;7.90;58.22
48606;BME280;8482;54.396;18.590;2023-10-09T04:06:49;101857.31;;;7.92;58.34
48606;BME280;8482;54.396;18.590;2023-10-09T04:09:17;101847.50;;;7.94;58.10
48606;BME280;8482;54.396;18.590;2023-10-09T04:11:51;101846.66;;;7.93;58.26
48606;BME280;8482;54.396;18.590;2023-10-09T04:14:47;101846.56;;;7.95;58.22
48606;BME280;8482;54.396;18.590;2023-10-09T04:17:21;101835.00;;;7.97;58.16
48606;BME280;8482;54.396;18.590;2023-10-09T04:20:00;101834.38;;;7.92;58.15
48606;BME280;8482;54.396;18.590;2023-10-09T04:22:45;101840.44;;;7.94;58.17
48606;BME280;8482;54.396;18.590;2023-10-09T04:25:18;101830.78;;;7.93;58.51
48606;BME280;8482;54.396;18.590;2023-10-09T04:27:57;101837.69;;;7.96;58.34
48606;BME280;8482;54.396;18.590;2023-10-09T04:30:36;101835.06;;;7.96;58.90
48606;BME280;8482;54.396;18.590;2023-10-09T04:33:09;101833.53;;;7.92;58.64
48606;BME280;8482;54.396;18.590;2023-10-09T04:36:05;101824.56;;;7.94;58.64
48606;BME280;8482;54.396;18.590;2023-10-09T04:38:52;101814.78;;;7.96;58.46
48606;BME280;8482;54.396;18.590;2023-10-09T04:41:33;101811.28;;;7.96;58.66
48606;BME280;8482;54.396;18.590;2023-10-09T04:44:11;101808.72;;;7.94;58.68
48606;BME280;8482;54.396;18.590;2023-10-09T04:46:44;101805.25;;;7.94;58.50
48606;BME280;8482;54.396;18.590;2023-10-09T04:49:13;101806.88;;;7.96;58.11
48606;BME280;8482;54.396;18.590;2023-10-09T04:51:54;101813.00;;;7.97;58.29
48606;BME280;8482;54.396;18.590;2023-10-09T04:54:35;101813.69;;;8.01;58.30
48606;BME280;8482;54.396;18.590;2023-10-09T04:57:27;101807.56;;;8.00;58.02
48606;BME280;8482;54.396;18.590;2023-10-09T04:59:52;101808.41;;;8.01;57.92
48606;BME280;8482;54.396;18.590;2023-10-09T05:02:24;101811.81;;;8.03;58.12
48606;BME280;8482;54.396;18.590;2023-10-09T05:04:50;101803.88;;;8.03;57.80
48606;BME280;8482;54.396;18.590;2023-10-09T05:07:39;101814.47;;;8.03;58.28
48606;BME280;8482;54.396;18.590;2023-10-09T05:10:22;101807.66;;;7.98;58.32
48606;BME280;8482;54.396;18.590;2023-10-09T05:12:51;101804.81;;;8.02;58.28
48606;BME280;8482;54.396;18.590;2023-10-09T05:15:24;101806.63;;;8.01;57.87
48606;BME280;8482;54.396;18.590;2023-10-09T05:17:56;101796.06;;;8.01;58.11
48606;BME280;8482;54.396;18.590;2023-10-09T05:20:35;101785.47;;;8.01;58.21
48606;BME280;8482;54.396;18.590;2023-10-09T05:23:21;101790.53;;;8.06;57.90
48606;BME280;8482;54.396;18.590;2023-10-09T05:25:51;101790.63;;;8.04;57.99
48606;BME280;8482;54.396;18.590;2023-10-09T05:28:21;101782.69;;;8.04;58.08
48606;BME280;8482;54.396;18.590;2023-10-09T05:30:52;101775.59;;;8.05;57.81
48606;BME280;8482;54.396;18.590;2023-10-09T05:33:50;101777.31;;;8.06;57.94
48606;BME280;8482;54.396;18.590;2023-10-09T05:36:18;101769.38;;;8.06;57.98
48606;BME280;8482;54.396;18.590;2023-10-09T05:38:50;101778.09;;;8.08;57.85
48606;BME280;8482;54.396;18.590;2023-10-09T05:41:45;101778.72;;;8.13;57.29
48606;BME280;8482;54.396;18.590;2023-10-09T05:44:14;101779.56;;;8.13;57.40
48606;BME280;8482;54.396;18.590;2023-10-09T05:46:58;101776.00;;;8.15;57.07
48606;BME280;8482;54.396;18.590;2023-10-09T05:49:43;101774.19;;;8.15;57.69
48606;BME280;8482;54.396;18.590;2023-10-09T05:52:12;101768.75;;;8.18;57.36
48606;BME280;8482;54.396;18.590;2023-10-09T05:54:57;101772.06;;;8.22;57.38
48606;BME280;8482;54.396;18.590;2023-10-09T05:57:35;101769.44;;;8.22;57.71
48606;BME280;8482;54.396;18.590;2023-10-09T06:00:19;101771.38;;;8.18;57.99
48606;BME280;8482;54.396;18.590;2023-10-09T06:03:03;101777.28;;;8.23;58.03
48606;BME280;8482;54.396;18.590;2023-10-09T06:05:55;101764.75;;;8.27;57.37
48606;BME280;8482;54.396;18.590;2023-10-09T06:08:29;101752.38;;;8.27;57.34
48606;BME280;8482;54.396;18.590;2023-10-09T06:11:12;101769.75;;;8.33;57.10
48606;BME280;8482;54.396;18.590;2023-10-09T06:13:59;101766.13;;;8.34;57.58
48606;BME280;8482;54.396;18.590;2023-10-09T06:16:41;101776.56;;;8.37;57.16
48606;BME280;8482;54.396;18.590;2023-10-09T06:19:16;101773.91;;;8.37;57.10
48606;BME280;8482;54.396;18.590;2023-10-09T06:21:47;101773.06;;;8.37;57.38
48606;BME280;8482;54.396;18.590;2023-10-09T06:24:36;101768.63;;;8.37;57.22
48606;BME280;8482;54.396;18.590;2023-10-09T06:27:22;101775.38;;;8.43;57.21
48606;BME280;8482;54.396;18.590;2023-10-09T06:29:58;101772.66;;;8.44;57.54
48606;BME280;8482;54.396;18.590;2023-10-09T06:32:49;101784.84;;;8.47;57.55
48606;BME280;8482;54.396;18.590;2023-10-09T06:35:34;101798.72;;;8.52;57.03
48606;BME280;8482;54.396;18.590;2023-10-09T06:38:02;101803.00;;;8.55;57.17
48606;BME280;8482;54.396;18.590;2023-10-09T06:43:12;101785.00;;;8.62;56.64
48606;BME280;8482;54.396;18.590;2023-10-09T06:45:58;101781.16;;;8.67;56.94
48606;BME280;8482;54.396;18.590;2023-10-09T06:48:27;101791.34;;;8.75;57.17
48606;BME280;8482;54.396;18.590;2023-10-09T06:51:13;101791.91;;;8.80;56.29
48606;BME280;8482;54.396;18.590;2023-10-09T06:53:56;101783.75;;;8.85;56.06
48606;BME280;8482;54.396;18.590;2023-10-09T06:56:29;101792.94;;;8.94;55.37
48606;BME280;8482;54.396;18.590;2023-10-09T06:58:58;101785.78;;;8.96;55.49
48606;BME280;8482;54.396;18.590;2023-10-09T07:01:25;101791.78;;;8.99;55.69
48606;BME280;8482;54.396;18.590;2023-10-09T07:03:56;101783.75;;;9.01;55.41
48606;BME280;8482;54.396;18.590;2023-10-09T07:06:48;101789.56;;;9.08;55.14
48606;BME280;8482;54.396;18.590;2023-10-09T07:09:15;101785.09;;;9.08;55.45
48606;BME280;8482;54.396;18.590;2023-10-09T07:11:49;101786.63;;;9.12;54.89
48606;BME280;8482;54.396;18.590;2023-10-09T07:14:22;101792.44;;;9.19;55.02
48606;BME280;8482;54.396;18.590;2023-10-09T07:17:00;101792.34;;;9.20;54.97
48606;BME280;8482;54.396;18.590;2023-10-09T07:19:31;101791.41;;;9.22;55.35
48606;BME280;8482;54.396;18.590;2023-10-09T07:22:01;101792.94;;;9.26;55.01
48606;BME280;8482;54.396;18.590;2023-10-09T07:24:41;101790.19;;;9.27;54.79
48606;BME280;8482;54.396;18.590;2023-10-09T07:27:17;101784.06;;;9.27;54.77
48606;BME280;8482;54.396;18.590;2023-10-09T07:29:43;101793.47;;;9.32;54.79
48606;BME280;8482;54.396;18.590;2023-10-09T07:32:16;101788.00;;;9.35;54.90
48606;BME280;8482;54.396;18.590;2023-10-09T07:34:52;101785.34;;;9.35;54.90
48606;BME280;8482;54.396;18.590;2023-10-09T07:37:27;101790.38;;;9.40;54.44
48606;BME280;8482;54.396;18.590;2023-10-09T07:40:04;101797.00;;;9.47;54.34
48606;BME280;8482;54.396;18.590;2023-10-09T07:42:34;101792.41;;;9.51;54.18
48606;BME280;8482;54.396;18.590;2023-10-09T07:45:06;101790.50;;;9.53;54.06
48606;BME280;8482;54.396;18.590;2023-10-09T07:48:01;101787.41;;;9.61;54.08
48606;BME280;8482;54.396;18.590;2023-10-09T07:50:38;101788.84;;;9.66;54.22
48606;BME280;8482;54.396;18.590;2023-10-09T07:53:15;101795.69;;;9.71;54.25
48606;BME280;8482;54.396;18.590;2023-10-09T07:55:45;101795.41;;;9.75;54.04
48606;BME280;8482;54.396;18.590;2023-10-09T07:58:28;101796.09;;;9.79;54.29
48606;BME280;8482;54.396;18.590;2023-10-09T08:00:56;101790.69;;;9.80;53.93
48606;BME280;8482;54.396;18.590;2023-10-09T08:03:48;101794.88;;;9.85;54.08
48606;BME280;8482;54.396;18.590;2023-10-09T08:06:24;101793.66;;;9.90;53.96
48606;BME280;8482;54.396;18.590;2023-10-09T08:09:06;101782.84;;;9.93;54.08
48606;BME280;8482;54.396;18.590;2023-10-09T08:11:44;101782.50;;;10.00;54.48
48606;BME280;8482;54.396;18.590;2023-10-09T08:14:14;101782.22;;;10.04;54.03
48606;BME280;8482;54.396;18.590;2023-10-09T08:16:59;101769.56;;;10.09;54.32
48606;BME280;8482;54.396;18.590;2023-10-09T08:19:48;101758.56;;;10.16;54.08
48606;BME280;8482;54.396;18.590;2023-10-09T08:22:28;101759.91;;;10.23;53.73
48606;BME280;8482;54.396;18.590;2023-10-09T08:24:55;101756.19;;;10.25;53.53
48606;BME280;8482;54.396;18.590;2023-10-09T08:27:29;101746.91;;;10.33;53.53
48606;BME280;8482;54.396;18.590;2023-10-09T08:30:06;101749.31;;;10.37;53.35
48606;BME280;8482;54.396;18.590;2023-10-09T08:32:45;101746.56;;;10.39;53.64
48606;BME280;8482;54.396;18.590;2023-10-09T08:35:34;101733.88;;;10.44;53.32
48606;BME280;8482;54.396;18.590;2023-10-09T08:38:02;101722.13;;;10.48;52.98
48606;BME280;8482;54.396;18.590;2023-10-09T08:40:35;101731.47;;;10.54;52.82
48606;BME280;8482;54.396;18.590;2023-10-09T08:43:20;101714.84;;;10.52;52.45
48606;BME280;8482;54.396;18.590;2023-10-09T08:45:53;101731.00;;;10.62;52.61
48606;BME280;8482;54.396;18.590;2023-10-09T08:48:22;101719.75;;;10.58;52.13
48606;BME280;8482;54.396;18.590;2023-10-09T08:50:52;101735.06;;;10.67;52.50
48606;BME280;8482;54.396;18.590;2023-10-09T08:53:22;101720.66;;;10.71;52.42
48606;BME280;8482;54.396;18.590;2023-10-09T08:55:58;101728.25;;;10.78;52.27
48606;BME280;8482;54.396;18.590;2023-10-09T08:58:25;101727.25;;;10.79;51.91
48606;BME280;8482;54.396;18.590;2023-10-09T09:00:52;101732.84;;;10.88;52.11
48606;BME280;8482;54.396;18.590;2023-10-09T09:03:21;101727.44;;;10.90;52.00
48606;BME280;8482;54.396;18.590;2023-10-09T09:05:59;101731.41;;;10.97;51.81
48606;BME280;8482;54.396;18.590;2023-10-09T09:08:31;101741.31;;;11.08;51.83
48606;BME280;8482;54.396;18.590;2023-10-09T09:11:03;101727.63;;;11.14;51.48
48606;BME280;8482;54.396;18.590;2023-10-09T09:14:05;101743.63;;;11.27;51.00
48606;BME280;8482;54.396;18.590;2023-10-09T09:16:45;101734.19;;;11.36;50.96
48606;BME280;8482;54.396;18.590;2023-10-09T09:19:14;101735.34;;;11.45;50.83
48606;BME280;8482;54.396;18.590;2023-10-09T09:21:52;101737.50;;;11.53;50.52
48606;BME280;8482;54.396;18.590;2023-10-09T09:24:25;101731.16;;;11.55;50.28
48606;BME280;8482;54.396;18.590;2023-10-09T09:27:10;101737.66;;;11.64;50.27
48606;BME280;8482;54.396;18.590;2023-10-09T09:32:13;101736.28;;;11.71;49.41
48606;BME280;8482;54.396;18.590;2023-10-09T09:34:51;101730.63;;;11.76;49.21
48606;BME280;8482;54.396;18.590;2023-10-09T09:37:26;101731.94;;;11.83;49.68
48606;BME280;8482;54.396;18.590;2023-10-09T09:40:02;101736.81;;;11.89;49.84
48606;BME280;8482;54.396;18.590;2023-10-09T09:42:43;101718.94;;;11.91;49.49
48606;BME280;8482;54.396;18.590;2023-10-09T09:45:14;101721.16;;;11.98;49.43
48606;BME280;8482;54.396;18.590;2023-10-09T09:47:44;101736.63;;;12.05;49.13
48606;BME280;8482;54.396;18.590;2023-10-09T09:50:17;101728.34;;;12.10;48.95
48606;BME280;8482;54.396;18.590;2023-10-09T09:52:55;101727.38;;;12.11;48.53
48606;BME280;8482;54.396;18.590;2023-10-09T09:55:33;101720.88;;;12.15;48.80
48606;BME280;8482;54.396;18.590;2023-10-09T09:58:01;101723.13;;;12.21;48.00
48606;BME280;8482;54.396;18.590;2023-10-09T10:00:33;101715.66;;;12.26;47.84
48606;BME280;8482;54.396;18.590;2023-10-09T10:03:14;101707.91;;;12.23;47.27
48606;BME280;8482;54.396;18.590;2023-10-09T10:05:46;101713.75;;;12.29;47.31
48606;BME280;8482;54.396;18.590;2023-10-09T10:08:22;101715.44;;;12.30;47.42
48606;BME280;8482;54.396;18.590;2023-10-09T10:10:56;101710.53;;;12.36;47.16
48606;BME280;8482;54.396;18.590;2023-10-09T10:16:11;101707.53;;;12.41;46.81
48606;BME280;8482;54.396;18.590;2023-10-09T10:19:00;101711.47;;;12.48;46.56
48606;BME280;8482;54.396;18.590;2023-10-09T10:21:36;101703.16;;;12.53;46.45
48606;BME280;8482;54.396;18.590;2023-10-09T10:32:57;101704.25;;;12.75;45.00
48606;BME280;8482;54.396;18.590;2023-10-09T10:35:24;101704.66;;;12.81;45.23
48606;BME280;8482;54.396;18.590;2023-10-09T10:38:31;101702.50;;;12.86;44.72
48606;BME280;8482;54.396;18.590;2023-10-09T10:41:17;101697.69;;;12.92;44.61
48606;BME280;8482;54.396;18.590;2023-10-09T10:43:45;101695.66;;;12.95;44.63
48606;BME280;8482;54.396;18.590;2023-10-09T10:46:23;101710.47;;;13.11;44.50
48606;BME280;8482;54.396;18.590;2023-10-09T10:49:05;101697.06;;;13.12;44.00
48606;BME280;8482;54.396;18.590;2023-10-09T10:51:51;101696.94;;;13.14;43.61
48606;BME280;8482;54.396;18.590;2023-10-09T10:54:37;101697.47;;;13.19;43.18
48606;BME280;8482;54.396;18.590;2023-10-09T10:57:13;101696.38;;;13.22;43.17
48606;BME280;8482;54.396;18.590;2023-10-09T10:59:45;101682.31;;;13.19;42.92
48606;BME280;8482;54.396;18.590;2023-10-09T11:02:12;101681.84;;;13.26;42.97
48606;BME280;8482;54.396;18.590;2023-10-09T11:04:38;101687.66;;;13.31;43.01
48606;BME280;8482;54.396;18.590;2023-10-09T11:07:07;101688.31;;;13.34;42.81
48606;BME280;8482;54.396;18.590;2023-10-09T11:10:10;101677.75;;;13.33;42.54
48606;BME280;8482;54.396;18.590;2023-10-09T11:12:46;101670.72;;;13.32;42.71
48606;BME280;8482;54.396;18.590;2023-10-09T11:15:39;101665.72;;;13.40;43.19
48606;BME280;8482;54.396;18.590;2023-10-09T11:18:15;101663.41;;;13.47;43.27
48606;BME280;8482;54.396;18.590;2023-10-09T11:20:57;101667.44;;;13.53;42.58
48606;BME280;8482;54.396;18.590;2023-10-09T11:23:31;101668.75;;;13.58;42.20
48606;BME280;8482;54.396;18.590;2023-10-09T11:26:02;101657.97;;;13.60;42.31
48606;BME280;8482;54.396;18.590;2023-10-09T11:29:13;101653.38;;;13.62;42.06
48606;BME280;8482;54.396;18.590;2023-10-09T11:32:18;101662.34;;;13.72;41.76
48606;BME280;8482;54.396;18.590;2023-10-09T11:34:48;101653.38;;;13.73;41.46
48606;BME280;8482;54.396;18.590;2023-10-09T11:37:24;101642.25;;;13.79;40.91
48606;BME280;8482;54.396;18.590;2023-10-09T11:39:57;101639.34;;;13.83;40.76
48606;BME280;8482;54.396;18.590;2023-10-09T11:42:26;101638.84;;;13.89;40.77
48606;BME280;8482;54.396;18.590;2023-10-09T11:45:05;101626.00;;;13.94;40.22
48606;BME280;8482;54.396;18.590;2023-10-09T11:47:51;101621.88;;;14.01;40.30
48606;BME280;8482;54.396;18.590;2023-10-09T11:50:43;101628.16;;;14.12;40.02
48606;BME280;8482;54.396;18.590;2023-10-09T11:53:16;101618.81;;;14.17;39.51
48606;BME280;8482;54.396;18.590;2023-10-09T11:56:02;101599.78;;;14.22;39.35
48606;BME280;8482;54.396;18.590;2023-10-09T11:58:28;101602.91;;;14.27;39.38
48606;BME280;8482;54.396;18.590;2023-10-09T12:00:58;101603.84;;;14.37;39.65
48606;BME280;8482;54.396;18.590;2023-10-09T12:03:32;101596.34;;;14.43;39.39
48606;BME280;8482;54.396;18.590;2023-10-09T12:06:03;101603.94;;;14.47;39.40
48606;BME280;8482;54.396;18.590;2023-10-09T12:08:34;101587.44;;;14.53;38.87
48606;BME280;8482;54.396;18.590;2023-10-09T12:11:02;101591.81;;;14.54;38.87
48606;BME280;8482;54.396;18.590;2023-10-09T12:13:29;101598.72;;;14.57;39.06
48606;BME280;8482;54.396;18.590;2023-10-09T12:15:54;101598.56;;;14.59;38.85
48606;BME280;8482;54.396;18.590;2023-10-09T12:18:22;101599.81;;;14.54;38.53
48606;BME280;8482;54.396;18.590;2023-10-09T12:20:50;101606.34;;;14.62;38.59
48606;BME280;8482;54.396;18.590;2023-10-09T12:23:19;101605.38;;;14.63;38.38
48606;BME280;8482;54.396;18.590;2023-10-09T12:25:45;101600.84;;;14.63;38.43
48606;BME280;8482;54.396;18.590;2023-10-09T12:28:12;101594.69;;;14.63;38.62
48606;BME280;8482;54.396;18.590;2023-10-09T12:30:38;101593.13;;;14.60;38.14
48606;BME280;8482;54.396;18.590;2023-10-09T12:33:08;101596.78;;;14.59;38.05
48606;BME280;8482;54.396;18.590;2023-10-09T12:35:41;101591.53;;;14.57;38.12
48606;BME280;8482;54.396;18.590;2023-10-09T12:38:07;101603.41;;;14.65;38.13
48606;BME280;8482;54.396;18.590;2023-10-09T12:40:39;101588.47;;;14.62;38.23
48606;BME280;8482;54.396;18.590;2023-10-09T12:43:07;101587.66;;;14.62;38.06
48606;BME280;8482;54.396;18.590;2023-10-09T12:45:42;101598.69;;;14.68;38.14
48606;BME280;8482;54.396;18.590;2023-10-09T12:48:08;101606.47;;;14.71;37.81
48606;BME280;8482;54.396;18.590;2023-10-09T12:50:38;101599.41;;;14.70;37.78
48606;BME280;8482;54.396;18.590;2023-10-09T12:53:11;101599.63;;;14.79;37.85
48606;BME280;8482;54.396;18.590;2023-10-09T12:55:42;101598.53;;;14.81;37.56
48606;BME280;8482;54.396;18.590;2023-10-09T12:58:10;101590.13;;;14.86;37.56
48606;BME280;8482;54.396;18.590;2023-10-09T13:00:41;101595.91;;;14.91;37.54
48606;BME280;8482;54.396;18.590;2023-10-09T13:03:15;101586.69;;;14.95;37.95
48606;BME280;8482;54.396;18.590;2023-10-09T13:05:53;101581.91;;;14.99;38.16
48606;BME280;8482;54.396;18.590;2023-10-09T13:08:25;101586.03;;;15.03;38.14
48606;BME280;8482;54.396;18.590;2023-10-09T13:11:05;101582.50;;;15.02;38.02
48606;BME280;8482;54.396;18.590;2023-10-09T13:13:39;101587.34;;;15.09;37.91
48606;BME280;8482;54.396;18.590;2023-10-09T13:16:20;101588.78;;;15.13;37.87
48606;BME280;8482;54.396;18.590;2023-10-09T13:18:50;101593.97;;;15.14;37.60
48606;BME280;8482;54.396;18.590;2023-10-09T13:21:27;101579.66;;;15.15;37.73
48606;BME280;8482;54.396;18.590;2023-10-09T13:24:00;101584.00;;;15.16;37.27
48606;BME280;8482;54.396;18.590;2023-10-09T13:26:29;101586.53;;;15.18;36.89
48606;BME280;8482;54.396;18.590;2023-10-09T13:28:58;101581.34;;;15.16;36.97
48606;BME280;8482;54.396;18.590;2023-10-09T13:31:26;101577.69;;;15.17;36.82
48606;BME280;8482;54.396;18.590;2023-10-09T13:33:54;101583.28;;;15.14;36.76
48606;BME280;8482;54.396;18.590;2023-10-09T13:36:25;101575.66;;;15.10;36.58
48606;BME280;8482;54.396;18.590;2023-10-09T13:39:02;101579.72;;;15.04;36.75
48606;BME280;8482;54.396;18.590;2023-10-09T13:41:48;101580.84;;;15.01;36.64
48606;BME280;8482;54.396;18.590;2023-10-09T13:44:15;101574.88;;;14.98;36.88
48606;BME280;8482;54.396;18.590;2023-10-09T13:46:42;101569.22;;;14.91;37.32
48606;BME280;8482;54.396;18.590;2023-10-09T13:49:11;101574.84;;;14.88;37.72
48606;BME280;8482;54.396;18.590;2023-10-09T13:51:41;101579.44;;;14.86;37.86
48606;BME280;8482;54.396;18.590;2023-10-09T13:54:14;101581.41;;;14.84;37.88